createdAt,value
2022-07-31T00:02:29.577Z,77.30
2022-07-31T00:05:17.593Z,80.80
2022-07-31T00:08:05.702Z,82.70
2022-07-31T00:10:53.355Z,84.20
2022-07-31T00:13:56.574Z,84.40
2022-07-31T00:16:45.923Z,83.40
2022-07-31T00:19:33.718Z,82.00
2022-07-31T00:22:21.372Z,80.40
2022-07-31T00:25:10.308Z,79.70
2022-07-31T00:27:58.503Z,79.10
2022-07-31T00:30:46.279Z,79.40
2022-07-31T00:33:33.977Z,81.40
2022-07-31T00:36:21.751Z,82.10
2022-07-31T00:39:17.818Z,82.30
2022-07-31T00:42:06.147Z,81.60
2022-07-31T00:44:53.936Z,80.70
2022-07-31T00:47:43.115Z,79.10
2022-07-31T00:50:31.294Z,79.30
2022-07-31T00:53:19.057Z,79.10
2022-07-31T00:56:06.854Z,79.10
2022-07-31T00:58:55.546Z,78.50
2022-07-31T01:01:43.308Z,78.00
2022-07-31T01:05:34.928Z,79.40
2022-07-31T01:09:28.124Z,79.90
2022-07-31T01:12:22.971Z,79.70
2022-07-31T01:15:35.050Z,79.30
2022-07-31T01:18:26.142Z,79.30
2022-07-31T01:21:30.978Z,79.10
2022-07-31T01:24:42.947Z,78.70
2022-07-31T01:28:12.265Z,78.40
2022-07-31T01:31:26.179Z,78.50
2022-07-31T01:34:42.446Z,77.70
2022-07-31T01:38:23.982Z,77.70
2022-07-31T01:41:18.416Z,77.70
2022-07-31T01:44:07.874Z,77.70
2022-07-31T01:47:03.939Z,77.90
2022-07-31T01:49:58.540Z,78.00
2022-07-31T01:52:47.598Z,79.00
2022-07-31T01:56:02.852Z,79.10
2022-07-31T01:58:51.106Z,78.50
2022-07-31T02:02:03.777Z,79.00
2022-07-31T02:04:54.281Z,79.00
2022-07-31T02:07:43.695Z,78.50
2022-07-31T02:10:32.900Z,78.60
2022-07-31T02:13:22.147Z,78.80
2022-07-31T02:16:10.144Z,79.30
2022-07-31T02:18:59.573Z,81.20
2022-07-31T02:22:41.059Z,82.20
2022-07-31T02:25:29.885Z,83.10
2022-07-31T02:28:22.391Z,84.70
2022-07-31T02:31:13.179Z,86.40
2022-07-31T02:34:23.080Z,86.80
2022-07-31T02:37:18.360Z,85.70
2022-07-31T02:40:08.182Z,83.90
2022-07-31T02:42:59.298Z,82.70
2022-07-31T02:45:47.367Z,81.30
2022-07-31T02:48:37.315Z,81.00
2022-07-31T02:51:29.428Z,79.90
2022-07-31T02:54:30.737Z,78.80
2022-07-31T02:57:48.537Z,78.70
2022-07-31T03:00:36.406Z,79.00
2022-07-31T03:03:24.450Z,80.50
2022-07-31T03:06:12.259Z,81.40
2022-07-31T03:09:00.161Z,81.50
2022-07-31T03:11:48.287Z,80.80
2022-07-31T03:14:37.543Z,80.40
2022-07-31T03:17:38.052Z,79.80
2022-07-31T03:20:28.812Z,83.60
2022-07-31T03:23:16.608Z,85.70
2022-07-31T03:26:19.748Z,86.70
2022-07-31T03:29:41.182Z,87.20
2022-07-31T03:32:15.533Z,85.70
2022-07-31T03:35:04.730Z,84.60
2022-07-31T03:37:52.788Z,83.60
2022-07-31T03:40:41.043Z,84.60
2022-07-31T03:44:03.391Z,84.80
2022-07-31T03:46:51.465Z,84.00
2022-07-31T03:49:39.936Z,83.30
2022-07-31T03:52:29.369Z,82.80
2022-07-31T03:55:18.317Z,83.90
2022-07-31T03:58:07.674Z,82.40
2022-07-31T04:00:56.406Z,82.30
2022-07-31T04:03:44.208Z,82.50
2022-07-31T04:06:50.370Z,82.30
2022-07-31T04:09:43.671Z,81.60
2022-07-31T04:12:33.166Z,82.30
2022-07-31T04:15:21.259Z,82.30
2022-07-31T04:18:09.128Z,84.10
2022-07-31T04:21:01.698Z,84.10
2022-07-31T04:28:10.309Z,82.40
2022-07-31T04:30:58.146Z,81.30
2022-07-31T04:33:48.865Z,80.70
2022-07-31T04:36:39.773Z,80.90
2022-07-31T04:39:28.403Z,81.10
2022-07-31T04:42:34.482Z,81.20
2022-07-31T04:45:22.348Z,80.30
2022-07-31T04:48:11.464Z,80.00
2022-07-31T04:50:59.758Z,80.50
2022-07-31T04:53:47.908Z,80.70
2022-07-31T04:56:53.965Z,81.00
2022-07-31T04:59:58.512Z,80.90
2022-07-31T05:02:52.504Z,80.10
2022-07-31T05:05:42.872Z,79.80
2022-07-31T05:08:30.549Z,79.50
2022-07-31T05:11:24.915Z,79.20
2022-07-31T05:14:14.871Z,79.50
2022-07-31T05:17:11.069Z,80.30
2022-07-31T05:20:28.370Z,81.60
2022-07-31T05:23:46.617Z,82.30
2022-07-31T05:26:36.206Z,82.20
2022-07-31T05:29:23.976Z,82.00
2022-07-31T05:32:12.189Z,81.00
2022-07-31T05:35:00.392Z,79.70
2022-07-31T05:37:48.175Z,78.60
2022-07-31T05:40:37.376Z,77.30
2022-07-31T05:44:44.486Z,76.30
2022-07-31T05:47:40.466Z,76.80
2022-07-31T05:50:30.020Z,76.80
2022-07-31T05:53:18.729Z,76.20
2022-07-31T06:01:13.176Z,75.40
2022-07-31T06:04:03.316Z,75.50
2022-07-31T06:11:33.414Z,75.30
2022-07-31T06:15:05.660Z,74.80
2022-07-31T06:17:59.383Z,73.90
2022-07-31T06:20:49.688Z,73.60
2022-07-31T06:23:38.119Z,72.60
2022-07-31T06:26:46.466Z,72.70
2022-07-31T06:29:41.850Z,72.40
2022-07-31T06:32:36.128Z,72.40
2022-07-31T06:35:23.999Z,72.40
2022-07-31T06:38:38.070Z,72.30
2022-07-31T06:41:54.667Z,71.90
2022-07-31T06:44:49.212Z,71.70
2022-07-31T06:47:52.162Z,71.70
2022-07-31T06:51:29.010Z,71.30
2022-07-31T06:54:12.606Z,71.20
2022-07-31T06:57:00.721Z,69.80
2022-07-31T06:59:48.690Z,69.30
2022-07-31T07:02:37.330Z,69.10
2022-07-31T07:05:25.636Z,69.00
2022-07-31T07:08:15.835Z,68.20
2022-07-31T07:11:09.153Z,67.80
2022-07-31T07:14:00.353Z,66.80
2022-07-31T07:16:48.381Z,66.70
2022-07-31T07:19:39.300Z,66.50
2022-07-31T07:22:48.842Z,65.90
2022-07-31T07:25:52.253Z,65.40
2022-07-31T07:28:41.624Z,64.50
2022-07-31T07:31:30.539Z,64.10
2022-07-31T07:34:18.725Z,63.70
2022-07-31T07:37:07.799Z,62.80
2022-07-31T07:39:55.767Z,63.00
2022-07-31T07:42:43.577Z,62.60
2022-07-31T07:45:33.880Z,59.00
2022-07-31T07:48:22.375Z,59.60
2022-07-31T07:51:59.398Z,59.50
2022-07-31T07:54:59.050Z,59.50
2022-07-31T07:58:24.715Z,59.90
2022-07-31T08:01:41.243Z,56.50
2022-07-31T08:04:47.258Z,56.00
2022-07-31T08:07:42.009Z,54.10
2022-07-31T08:10:50.941Z,54.80
2022-07-31T08:13:49.733Z,53.60
2022-07-31T08:16:58.278Z,52.80
2022-07-31T08:19:50.838Z,53.00
2022-07-31T08:22:39.234Z,52.10
2022-07-31T08:25:31.790Z,52.70
2022-07-31T08:28:26.062Z,51.90
2022-07-31T08:31:15.490Z,51.20
2022-07-31T08:34:31.500Z,52.70
2022-07-31T08:37:57.524Z,51.70
2022-07-31T08:40:43.081Z,50.30
2022-07-31T08:44:03.212Z,51.60
2022-07-31T08:46:40.963Z,50.10
2022-07-31T08:49:31.197Z,50.00
2022-07-31T08:52:24.581Z,50.00
2022-07-31T08:55:55.235Z,49.00
2022-07-31T08:58:46.201Z,48.40
2022-07-31T09:01:35.425Z,48.40
2022-07-31T09:04:24.462Z,47.00
2022-07-31T09:07:16.041Z,47.40
2022-07-31T09:10:19.882Z,47.00
2022-07-31T09:13:15.795Z,46.20
2022-07-31T09:16:04.219Z,46.40
2022-07-31T09:19:00.640Z,45.70
2022-07-31T09:21:48.660Z,46.80
2022-07-31T09:24:37.033Z,46.60
2022-07-31T09:27:29.090Z,48.10
2022-07-31T09:30:17.100Z,47.60
2022-07-31T09:33:29.912Z,47.50
2022-07-31T09:36:49.863Z,47.70
2022-07-31T09:40:00.245Z,46.40
2022-07-31T09:43:25.776Z,47.30
2022-07-31T09:46:14.385Z,46.50
2022-07-31T09:49:03.376Z,46.10
2022-07-31T09:51:51.275Z,46.40
2022-07-31T09:54:40.889Z,45.00
2022-07-31T09:57:37.885Z,45.70
2022-07-31T10:00:27.997Z,46.10
2022-07-31T10:03:19.072Z,46.10
2022-07-31T10:06:16.369Z,43.10
2022-07-31T10:09:07.516Z,43.70
2022-07-31T10:12:28.697Z,44.00
2022-07-31T10:15:19.307Z,44.50
2022-07-31T10:18:17.876Z,43.20
2022-07-31T10:21:57.996Z,42.20
2022-07-31T10:24:54.027Z,42.60
2022-07-31T10:27:42.064Z,43.50
2022-07-31T10:33:44.807Z,42.50
2022-07-31T10:36:54.362Z,43.20
2022-07-31T10:40:34.447Z,41.40
2022-07-31T10:43:29.581Z,41.10
2022-07-31T10:46:43.090Z,41.70
2022-07-31T10:50:04.125Z,40.10
2022-07-31T10:53:09.835Z,40.70
2022-07-31T10:56:16.714Z,40.80
2022-07-31T10:59:28.981Z,40.10
2022-07-31T11:02:45.597Z,40.40
2022-07-31T11:06:02.136Z,39.80
2022-07-31T11:09:09.391Z,39.50
2022-07-31T11:12:20.678Z,36.70
2022-07-31T11:15:25.632Z,37.30
2022-07-31T11:18:34.362Z,38.20
2022-07-31T11:21:39.246Z,36.80
2022-07-31T11:24:27.484Z,36.00
2022-07-31T11:27:15.160Z,37.80
2022-07-31T11:30:12.644Z,35.30
2022-07-31T11:33:06.591Z,35.60
2022-07-31T11:35:54.384Z,35.20
2022-07-31T11:38:44.788Z,33.40
2022-07-31T11:41:38.177Z,33.50
2022-07-31T11:44:32.356Z,34.70
2022-07-31T11:48:09.418Z,33.00
2022-07-31T11:50:31.145Z,33.40
2022-07-31T11:53:19.985Z,34.40
2022-07-31T11:56:07.918Z,33.20
2022-07-31T11:58:57.812Z,32.10
2022-07-31T12:01:45.377Z,32.60
2022-07-31T12:04:34.339Z,43.40
2022-07-31T12:07:22.131Z,48.90
2022-07-31T12:10:12.321Z,49.90
2022-07-31T12:13:00.699Z,48.80
2022-07-31T12:15:59.484Z,48.70
2022-07-31T12:18:54.137Z,47.50
2022-07-31T12:21:42.306Z,48.00
2022-07-31T12:24:30.400Z,47.30
2022-07-31T12:27:18.684Z,45.60
2022-07-31T12:30:18.605Z,46.20
2022-07-31T12:33:09.849Z,44.00
2022-07-31T12:35:57.596Z,43.50
2022-07-31T12:38:48.165Z,40.00
2022-07-31T12:41:43.446Z,38.70
2022-07-31T12:44:31.179Z,35.20
2022-07-31T12:47:26.849Z,34.10
2022-07-31T12:50:14.619Z,37.10
2022-07-31T12:53:04.378Z,38.10
2022-07-31T12:55:52.113Z,38.30
2022-07-31T12:58:39.917Z,37.90
2022-07-31T13:01:27.634Z,33.40
2022-07-31T13:04:18.530Z,33.50
2022-07-31T13:07:08.722Z,29.90
2022-07-31T13:10:15.113Z,29.40
2022-07-31T13:13:04.170Z,29.70
2022-07-31T13:15:51.955Z,30.20
2022-07-31T13:18:40.159Z,30.50
2022-07-31T13:21:27.814Z,33.20
2022-07-31T13:24:35.974Z,36.80
2022-07-31T13:27:23.689Z,40.00
2022-07-31T13:30:11.877Z,42.20
2022-07-31T13:32:59.520Z,41.10
2022-07-31T13:35:47.262Z,40.10
2022-07-31T13:38:34.869Z,40.80
2022-07-31T13:41:28.035Z,39.80
2022-07-31T13:44:15.772Z,38.00
2022-07-31T13:47:03.694Z,30.60
2022-07-31T13:49:54.529Z,41.30
2022-07-31T13:52:42.269Z,43.30
2022-07-31T13:55:29.921Z,43.70
2022-07-31T13:58:17.947Z,45.00
2022-07-31T14:01:06.045Z,44.40
2022-07-31T14:03:53.768Z,42.70
2022-07-31T14:06:42.226Z,43.70
2022-07-31T14:09:34.930Z,44.60
2022-07-31T14:12:22.572Z,42.60
2022-07-31T14:15:10.659Z,44.10
2022-07-31T14:17:58.827Z,44.60
2022-07-31T14:20:47.186Z,44.80
2022-07-31T14:23:40.143Z,44.80
2022-07-31T14:26:28.506Z,45.30
2022-07-31T14:29:16.126Z,45.10
2022-07-31T14:32:04.197Z,45.80
2022-07-31T14:34:52.505Z,46.60
2022-07-31T14:37:41.995Z,47.30
2022-07-31T14:40:30.970Z,48.10
2022-07-31T14:43:18.673Z,48.80
2022-07-31T14:46:07.142Z,49.60
2022-07-31T14:48:54.924Z,50.00
2022-07-31T14:51:48.406Z,50.30
2022-07-31T14:54:36.217Z,50.70
2022-07-31T14:57:49.296Z,50.00
2022-07-31T15:00:37.217Z,50.40
2022-07-31T15:03:24.947Z,50.70
2022-07-31T15:06:40.100Z,51.00
2022-07-31T15:09:24.359Z,51.60
2022-07-31T15:12:17.071Z,51.30
2022-07-31T15:15:05.648Z,51.40
2022-07-31T15:17:53.348Z,51.50
2022-07-31T15:20:41.106Z,51.90
2022-07-31T15:23:35.914Z,51.70
2022-07-31T15:26:23.789Z,51.60
2022-07-31T15:29:11.501Z,51.70
2022-07-31T15:31:59.156Z,52.00
2022-07-31T15:34:46.824Z,52.00
2022-07-31T15:37:39.046Z,52.20
2022-07-31T15:40:26.987Z,51.60
2022-07-31T15:43:14.612Z,51.70
2022-07-31T15:46:07.270Z,51.70
2022-07-31T15:48:54.931Z,51.30
2022-07-31T15:51:42.687Z,52.00
2022-07-31T15:54:30.392Z,51.20
2022-07-31T15:57:38.299Z,51.40
2022-07-31T16:00:27.003Z,51.50
2022-07-31T16:03:17.857Z,51.10
2022-07-31T16:06:05.984Z,50.50
2022-07-31T16:09:01.813Z,50.10
2022-07-31T16:12:03.685Z,50.10
2022-07-31T16:15:13.707Z,49.60
2022-07-31T16:18:01.938Z,49.50
2022-07-31T16:20:50.150Z,48.50
2022-07-31T16:23:37.802Z,48.40
2022-07-31T16:26:25.490Z,47.50
2022-07-31T16:29:17.548Z,47.20
2022-07-31T16:32:05.748Z,47.10
2022-07-31T16:34:57.138Z,46.70
2022-07-31T16:37:51.298Z,45.20
2022-07-31T16:40:41.085Z,44.80
2022-07-31T16:43:47.183Z,44.20
2022-07-31T16:46:49.182Z,43.00
2022-07-31T16:49:41.763Z,44.50
2022-07-31T16:52:29.476Z,41.80
2022-07-31T16:55:17.229Z,41.60
2022-07-31T16:58:05.186Z,41.90
2022-07-31T17:00:52.950Z,42.40
2022-07-31T17:04:00.194Z,42.80
2022-07-31T17:06:48.498Z,42.10
2022-07-31T17:09:36.154Z,41.90
2022-07-31T17:12:23.835Z,42.80
2022-07-31T17:15:11.757Z,42.90
2022-07-31T17:17:59.743Z,42.60
2022-07-31T17:20:47.395Z,42.90
2022-07-31T17:23:44.206Z,43.10
2022-07-31T17:26:39.340Z,43.30
2022-07-31T17:29:26.996Z,43.70
2022-07-31T17:32:14.667Z,43.80
2022-07-31T17:35:02.462Z,45.00
2022-07-31T17:37:50.217Z,46.80
2022-07-31T17:40:45.158Z,46.50
2022-07-31T17:43:39.238Z,48.50
2022-07-31T17:46:43.850Z,50.70
2022-07-31T17:49:35.925Z,51.10
2022-07-31T17:52:24.014Z,51.50
2022-07-31T17:55:14.545Z,50.90
2022-07-31T17:58:02.167Z,51.20
2022-07-31T18:00:50.569Z,48.60
2022-07-31T18:03:38.283Z,48.60
2022-07-31T18:06:25.956Z,48.30
2022-07-31T18:09:14.954Z,48.80
2022-07-31T18:12:03.521Z,49.80
2022-07-31T18:14:52.406Z,50.80
2022-07-31T18:17:47.105Z,51.20
2022-07-31T18:20:34.884Z,50.90
2022-07-31T18:23:29.389Z,51.90
2022-07-31T18:26:19.917Z,51.80
2022-07-31T18:29:07.558Z,51.30
2022-07-31T18:31:55.363Z,52.00
2022-07-31T18:34:42.999Z,52.30
2022-07-31T18:37:32.613Z,52.80
2022-07-31T18:40:20.245Z,53.70
2022-07-31T18:43:07.931Z,53.70
2022-07-31T18:45:55.713Z,53.80
2022-07-31T18:48:43.433Z,54.10
2022-07-31T18:51:31.106Z,54.00
2022-07-31T18:54:20.077Z,54.50
2022-07-31T18:57:08.190Z,53.90
2022-07-31T18:59:55.854Z,53.80
2022-07-31T19:02:43.511Z,53.10
2022-07-31T19:05:31.347Z,49.20
2022-07-31T19:08:19.853Z,48.10
2022-07-31T19:11:07.625Z,48.90
2022-07-31T19:13:55.363Z,51.10
2022-07-31T19:16:45.995Z,50.10
2022-07-31T19:19:52.499Z,49.80
2022-07-31T19:22:43.093Z,51.10
2022-07-31T19:25:52.981Z,51.70
2022-07-31T19:28:43.472Z,47.90
2022-07-31T19:31:31.260Z,53.00
2022-07-31T19:34:19.005Z,51.80
2022-07-31T19:37:08.550Z,49.10
2022-07-31T19:39:57.784Z,48.20
2022-07-31T19:42:45.395Z,45.80
2022-07-31T19:45:33.061Z,45.60
2022-07-31T19:48:20.693Z,45.40
2022-07-31T19:51:10.664Z,42.80
2022-07-31T19:53:58.730Z,41.10
2022-07-31T19:56:46.486Z,41.90
2022-07-31T19:59:35.591Z,41.40
2022-07-31T20:02:23.333Z,43.00
2022-07-31T20:05:11.753Z,42.50
2022-07-31T20:07:59.382Z,42.20
2022-07-31T20:10:47.019Z,42.80
2022-07-31T20:13:37.808Z,41.50
2022-07-31T20:16:25.502Z,42.90
2022-07-31T20:19:13.229Z,42.30
2022-07-31T20:22:00.871Z,42.00
2022-07-31T20:24:48.544Z,41.40
2022-07-31T20:27:36.107Z,39.80
2022-07-31T20:30:25.302Z,39.00
2022-07-31T20:33:13.221Z,42.00
2022-07-31T20:36:01.366Z,41.60
2022-07-31T20:38:49.127Z,39.60
2022-07-31T20:41:36.944Z,39.20
2022-07-31T20:44:24.758Z,40.20
2022-07-31T20:47:12.612Z,39.30
2022-07-31T20:50:00.373Z,40.90
2022-07-31T20:52:48.707Z,40.90
2022-07-31T20:55:36.568Z,41.20
2022-07-31T21:03:00.309Z,41.60
2022-07-31T21:05:48.894Z,41.70
2022-07-31T21:08:36.788Z,41.10
2022-07-31T21:11:31.203Z,42.10
2022-07-31T21:14:19.707Z,41.10
2022-07-31T21:17:07.665Z,41.90
2022-07-31T21:19:55.545Z,41.60
2022-07-31T21:22:43.476Z,43.40
2022-07-31T21:25:32.435Z,43.00
2022-07-31T21:28:21.183Z,39.70
2022-07-31T21:31:09.103Z,42.50
2022-07-31T21:34:05.794Z,42.00
2022-07-31T21:36:54.043Z,41.10
2022-07-31T21:39:41.945Z,41.50
2022-07-31T21:42:30.021Z,40.50
2022-07-31T21:45:18.457Z,42.60
2022-07-31T21:48:15.459Z,43.90
2022-07-31T21:51:03.357Z,41.80
2022-07-31T21:53:51.134Z,42.30
2022-07-31T21:56:38.931Z,42.20
2022-07-31T21:59:26.822Z,43.20
2022-07-31T22:02:15.008Z,43.30
2022-07-31T22:05:21.455Z,43.30
2022-07-31T22:08:09.167Z,42.60
2022-07-31T22:10:56.986Z,44.90
2022-07-31T22:13:44.735Z,43.00
2022-07-31T22:16:32.518Z,45.20
2022-07-31T22:19:20.712Z,44.10
2022-07-31T22:22:09.135Z,45.50
2022-07-31T22:24:57.539Z,44.80
2022-07-31T22:28:15.471Z,43.80
2022-07-31T22:31:03.651Z,46.00
2022-07-31T22:33:52.071Z,43.50
2022-07-31T22:36:40.120Z,42.50
2022-07-31T22:39:28.757Z,44.10
2022-07-31T22:42:16.539Z,44.90
2022-07-31T22:45:04.610Z,45.10
2022-07-31T22:47:52.772Z,43.70
2022-07-31T22:50:40.624Z,44.00
2022-07-31T22:53:28.357Z,45.80
2022-07-31T22:56:16.579Z,45.30
2022-07-31T22:59:04.773Z,47.60
2022-07-31T23:01:52.612Z,45.00
2022-07-31T23:04:40.654Z,45.00
2022-07-31T23:07:28.463Z,44.90
2022-07-31T23:10:17.466Z,46.00
2022-07-31T23:13:05.264Z,46.70
2022-07-31T23:15:52.987Z,49.00
2022-07-31T23:18:40.798Z,48.00
2022-07-31T23:21:28.682Z,47.80
2022-07-31T23:24:16.604Z,47.00
2022-07-31T23:27:08.453Z,46.40
2022-07-31T23:29:56.351Z,48.40
2022-07-31T23:32:44.105Z,46.20
2022-07-31T23:35:31.888Z,47.50
2022-07-31T23:38:19.638Z,49.10
2022-07-31T23:41:15.574Z,49.00
2022-07-31T23:44:03.422Z,48.90
2022-07-31T23:46:52.688Z,47.50
2022-07-31T23:49:42.331Z,49.10
2022-07-31T23:52:30.388Z,48.00
2022-07-31T23:55:18.663Z,50.10
2022-07-31T23:58:06.702Z,48.30
